Terminal Aerodrome Forecast
Issued by NWS Newport/Morehead City, NC

Home | Current Version | Previous Version | Text Only | Print | Product List | Glossary On
Versions: 1 2 3 4 5 6 7 8 9 10 11 12 13 14 15 16 17 18 19 20
560
FTUS42 KMHX 271530 AAA
TAFEWN
TAF AMD
KEWN 271530Z 2716/2812 23011G19KT P6SM SCT050
     FM280300 20008KT P6SM SCT015 BKN060=

USA.gov is the U.S. government's official web portal to all federal, state and local government web resources and services.